Time;durP1;ratioP1;P1;durP2;ratioP2;P2;SDS_P1;SDS_P2;PMS_P1;PMS_P2;Temp;Humidity;BMP_temperature;BMP_pressure;BME280_temperature;BME280_humidity;BME280_pressure;Samples;Min_cycle;Max_cycle;Signal;HPM_P1;HPM_P2
2022/12/02 00:00:00;;;;;;;50.53;21.20;;;;;;;1.06;100.00;102029.28;5056516;28;20051;-75
2022/12/02 00:02:30;;;;;;;43.42;18.05;;;;;;;1.08;100.00;102030.25;5060749;28;20051;-74
2022/12/02 00:05:14;;;;;;;42.67;17.67;;;;;;;1.08;100.00;102026.78;5056469;28;20067;-74
2022/12/02 00:07:43;;;;;;;42.20;18.35;;;;;;;1.09;100.00;102024.28;5078038;28;20048;-74
2022/12/02 00:10:31;;;;;;;45.80;19.95;;;;;;;1.13;100.00;102017.59;5059716;28;20036;-76
2022/12/02 00:13:21;;;;;;;43.78;16.52;;;;;;;1.15;100.00;102013.41;5058643;28;20132;-74
2022/12/02 00:15:55;;;;;;;49.33;20.95;;;;;;;1.15;100.00;102010.81;5059049;28;20059;-74
2022/12/02 00:18:22;;;;;;;51.10;20.65;;;;;;;1.13;100.00;102017.59;5056780;28;20415;-74
2022/12/02 00:20:48;;;;;;;54.55;22.13;;;;;;;1.08;100.00;102019.03;5055667;28;20068;-76
2022/12/02 00:23:15;;;;;;;56.20;21.65;;;;;;;1.07;100.00;102014.69;5073450;28;20059;-75
2022/12/02 00:25:49;;;;;;;55.10;22.15;;;;;;;1.06;100.00;102012.94;5056946;28;20035;-77
2022/12/02 00:28:16;;;;;;;49.35;21.48;;;;;;;1.06;100.00;102010.34;5059328;28;20051;-75
2022/12/02 00:30:43;;;;;;;60.97;24.35;;;;;;;1.07;100.00;102012.09;5043020;28;20262;-76
2022/12/02 00:33:10;;;;;;;63.28;27.00;;;;;;;1.01;100.00;102006.66;5056499;28;20058;-75
2022/12/02 00:35:38;;;;;;;56.00;23.25;;;;;;;0.97;100.00;102001.31;5073766;28;20028;-74
2022/12/02 00:38:05;;;;;;;67.53;25.42;;;;;;;0.96;100.00;102003.81;5054028;28;20131;-77
2022/12/02 00:40:34;;;;;;;61.45;25.23;;;;;;;0.94;100.00;102005.41;5053195;28;20044;-76
2022/12/02 00:48:28;;;;;;;64.80;24.42;;;;;;;0.92;100.00;102005.34;5058723;28;20094;-75
2022/12/02 00:50:54;;;;;;;55.80;24.63;;;;;;;0.94;100.00;102008.00;5068185;28;20589;-77
2022/12/02 00:53:22;;;;;;;63.60;25.17;;;;;;;0.95;100.00;102007.19;5052367;28;20045;-75
2022/12/02 00:55:49;;;;;;;55.63;25.33;;;;;;;0.96;100.00;102004.69;5052853;28;20150;-77
2022/12/02 00:58:15;;;;;;;58.88;23.80;;;;;;;0.99;100.00;101999.72;5036713;28;20875;-74
2022/12/02 01:00:42;;;;;;;57.83;23.98;;;;;;;0.99;100.00;102009.13;5068253;28;20073;-75
2022/12/02 01:03:09;;;;;;;63.05;23.55;;;;;;;0.96;100.00;101996.97;5054454;28;20106;-78
2022/12/02 01:05:38;;;;;;;69.53;26.77;;;;;;;0.95;100.00;102002.94;5057127;28;20036;-75
2022/12/02 01:08:06;;;;;;;61.70;28.27;;;;;;;0.95;100.00;102002.03;5055683;28;20048;-76
2022/12/02 01:10:32;;;;;;;57.35;26.40;;;;;;;0.92;100.00;102000.19;5070262;28;20402;-75
2022/12/02 01:12:59;;;;;;;58.78;24.67;;;;;;;0.90;100.00;102001.81;5071516;28;20040;-75
2022/12/02 01:15:25;;;;;;;63.15;24.50;;;;;;;0.92;100.00;101999.31;5054261;28;20028;-76
2022/12/02 01:17:52;;;;;;;51.90;23.58;;;;;;;0.94;100.00;102001.16;5039357;28;20062;-74
2022/12/02 01:20:18;;;;;;;52.53;24.25;;;;;;;0.96;100.00;101996.09;5054714;28;20449;-74
2022/12/02 01:22:45;;;;;;;58.58;23.55;;;;;;;0.99;100.00;101998.81;5072867;28;20051;-73
2022/12/02 01:25:14;;;;;;;58.47;24.80;;;;;;;1.01;100.00;101993.75;5055125;28;20067;-75
2022/12/02 01:27:41;;;;;;;52.67;23.63;;;;;;;1.01;100.00;101994.63;5053570;28;20044;-74
2022/12/02 01:30:08;;;;;;;62.47;25.95;;;;;;;0.97;100.00;101995.28;5053429;28;20429;-75
2022/12/02 01:32:35;;;;;;;59.33;24.15;;;;;;;0.95;100.00;101997.78;5051777;28;20507;-73
2022/12/02 01:35:02;;;;;;;68.30;28.00;;;;;;;0.92;100.00;101997.59;5056839;28;20051;-73
2022/12/02 01:37:28;;;;;;;67.18;26.73;;;;;;;0.88;100.00;101993.09;5039790;28;20386;-73
2022/12/02 01:39:58;;;;;;;56.25;25.33;;;;;;;0.87;100.00;101991.31;5038612;28;20070;-74
2022/12/02 01:42:24;;;;;;;60.80;26.58;;;;;;;0.87;100.00;101987.88;5035423;28;20648;-75
2022/12/02 01:44:51;;;;;;;60.05;26.35;;;;;;;0.86;100.00;101992.16;5051458;28;20467;-74
2022/12/02 01:47:20;;;;;;;60.78;26.02;;;;;;;0.86;100.00;101994.72;5051877;28;20056;-74
2022/12/02 01:49:46;;;;;;;61.60;25.77;;;;;;;0.84;100.00;101985.16;5049755;28;20136;-76
2022/12/02 01:52:13;;;;;;;61.90;27.23;;;;;;;0.80;100.00;101987.53;5063285;28;20367;-75
2022/12/02 01:54:40;;;;;;;59.05;26.50;;;;;;;0.82;100.00;101990.19;5051040;28;20396;-75
2022/12/02 01:57:11;;;;;;;56.00;23.52;;;;;;;0.82;100.00;101995.34;5048062;28;20534;-73
2022/12/02 01:59:40;;;;;;;55.83;24.05;;;;;;;0.82;100.00;101985.94;5032339;28;20470;-75
2022/12/02 02:02:35;;;;;;;65.57;24.77;;;;;;;0.74;100.00;101992.38;5046083;28;20139;-74
2022/12/02 02:05:10;;;;;;;59.47;24.42;;;;;;;0.69;100.00;101982.63;5051289;28;20043;-74
2022/12/02 02:07:37;;;;;;;;;;;;;;;0.66;100.00;101988.50;5050460;28;20080;-73
2022/12/02 02:10:05;;;;;;;64.20;28.00;;;;;;;0.64;100.00;101987.56;5047420;28;19928;-77
2022/12/02 02:12:32;;;;;;;68.18;25.88;;;;;;;0.61;100.00;101980.56;5048464;28;20048;-74
2022/12/02 02:14:58;;;;;;;62.92;26.13;;;;;;;0.58;100.00;101985.53;5052035;28;20047;-73
2022/12/02 02:17:25;;;;;;;65.95;27.73;;;;;;;0.57;100.00;101981.16;5053549;28;20512;-75
2022/12/02 02:19:52;;;;;;;59.88;23.75;;;;;;;0.53;100.00;101979.25;5068908;28;20045;-74
2022/12/02 02:22:29;;;;;;;65.18;27.50;;;;;;;0.53;100.00;101975.78;5053217;28;20118;-76
2022/12/02 02:24:55;;;;;;;75.43;29.55;;;;;;;0.57;100.00;101975.16;5063757;28;20052;-75
2022/12/02 02:27:22;;;;;;;69.00;26.92;;;;;;;0.58;100.00;101972.63;5092106;28;20040;-73
2022/12/02 02:29:49;;;;;;;68.80;28.25;;;;;;;0.56;100.00;101971.69;5092913;28;20407;-73
2022/12/02 02:32:16;;;;;;;74.13;28.65;;;;;;;0.58;100.00;101970.06;5089278;28;20054;-73
2022/12/02 02:34:43;;;;;;;70.90;29.63;;;;;;;0.64;100.00;101972.09;5077026;28;20128;-75
2022/12/02 02:37:09;;;;;;;73.38;28.40;;;;;;;0.65;100.00;101967.03;5073239;28;20055;-74
2022/12/02 02:39:36;;;;;;;69.18;28.67;;;;;;;0.67;100.00;101964.53;5080380;28;20078;-73
2022/12/02 02:42:03;;;;;;;68.15;27.02;;;;;;;0.67;100.00;101961.06;5099171;28;20043;-73
2022/12/02 02:44:30;;;;;;;68.65;29.05;;;;;;;0.67;100.00;101964.53;5062987;28;20036;-74
2022/12/02 02:46:58;;;;;;;81.38;29.10;;;;;;;0.67;100.00;101966.22;5074461;28;20036;-74
2022/12/02 02:49:26;;;;;;;74.18;30.27;;;;;;;0.61;100.00;101953.88;5073143;28;20040;-74
2022/12/02 03:00:08;;;;;;;77.53;29.57;;;;;;;0.55;100.00;101949.31;5061545;27;20471;-75
2022/12/02 03:02:38;;;;;;;77.40;30.20;;;;;;;0.55;100.00;101957.03;5089701;27;20044;-74
2022/12/02 03:05:07;;;;;;;71.85;29.30;;;;;;;0.58;100.00;101952.03;5071174;28;20047;-75
2022/12/02 03:07:43;;;;;;;67.82;28.88;;;;;;;0.59;100.00;101947.78;5072818;27;20126;-73
2022/12/02 03:10:11;;;;;;;80.50;31.23;;;;;;;0.60;100.00;101946.94;5070360;27;20048;-73
2022/12/02 03:12:40;;;;;;;57.92;27.83;;;;;;;0.60;100.00;101947.84;5072825;27;21270;-75
2022/12/02 03:15:09;;;;;;;67.10;27.23;;;;;;;0.59;100.00;101950.34;5088771;27;20123;-73
2022/12/02 03:17:39;;;;;;;81.28;29.08;;;;;;;0.58;100.00;101946.00;5092498;27;20051;-75
2022/12/02 03:20:07;;;;;;;69.78;29.42;;;;;;;0.57;100.00;101952.81;5069941;28;20965;-73
2022/12/02 03:22:36;;;;;;;69.70;27.92;;;;;;;0.55;100.00;101949.31;5089073;27;20044;-74
2022/12/02 03:25:04;;;;;;;66.55;27.00;;;;;;;0.53;100.00;101944.88;5058612;28;20073;-78
2022/12/02 03:27:31;;;;;;;73.20;29.10;;;;;;;0.52;100.00;101948.25;5070359;28;20399;-75
2022/12/02 03:29:59;;;;;;;69.88;28.48;;;;;;;0.53;100.00;101940.59;5057346;28;20067;-77
2022/12/02 03:32:47;;;;;;;77.93;28.85;;;;;;;0.55;100.00;101943.25;5035157;28;20569;-76
2022/12/02 03:35:32;;;;;;;69.07;28.27;;;;;;;0.55;100.00;101945.81;5057079;28;20060;-74
2022/12/02 03:38:15;;;;;;;67.82;28.95;;;;;;;0.52;100.00;101936.22;5053048;28;20048;-76
2022/12/02 03:40:46;;;;;;;73.93;31.25;;;;;;;0.53;100.00;101945.75;5052234;28;20107;-75
2022/12/02 03:43:25;;;;;;;73.75;30.23;;;;;;;0.52;100.00;101941.38;5051546;28;20321;-74
2022/12/02 03:45:54;;;;;;;74.72;29.67;;;;;;;0.51;100.00;101943.88;5035251;28;20055;-76
2022/12/02 03:48:21;;;;;;;58.03;26.17;;;;;;;0.51;100.00;101939.63;5052875;28;20485;-73
2022/12/02 03:50:52;;;;;;;64.07;25.98;;;;;;;0.55;100.00;101935.50;5068524;28;20097;-73
2022/12/02 03:53:20;;;;;;;65.13;26.70;;;;;;;0.53;100.00;101932.84;5052688;28;20135;-73
2022/12/02 03:55:48;;;;;;;70.80;27.73;;;;;;;0.53;100.00;101934.56;5059564;28;20063;-74
2022/12/02 03:58:16;;;;;;;66.85;26.70;;;;;;;0.57;100.00;101928.75;5052817;28;20052;-73
2022/12/02 04:00:42;;;;;;;72.82;27.83;;;;;;;0.59;100.00;101934.88;5048036;28;20044;-73
2022/12/02 04:03:09;;;;;;;75.30;29.27;;;;;;;0.57;100.00;101927.06;5052866;28;20478;-74
2022/12/02 04:05:36;;;;;;;64.78;25.70;;;;;;;0.55;100.00;101923.53;5052012;28;20040;-73
2022/12/02 04:08:02;;;;;;;63.97;28.23;;;;;;;0.56;100.00;101926.97;5069716;28;20127;-75
2022/12/02 04:10:29;;;;;;;63.85;26.10;;;;;;;0.55;100.00;101927.78;5053159;28;20802;-74
2022/12/02 04:12:55;;;;;;;62.53;27.92;;;;;;;0.52;100.00;101922.47;5068231;28;20070;-75
2022/12/02 04:15:22;;;;;;;74.63;29.67;;;;;;;0.52;100.00;101927.63;5072013;28;20044;-75
2022/12/02 04:17:48;;;;;;;72.47;29.08;;;;;;;0.46;100.00;101920.47;5038075;28;20052;-73
2022/12/02 04:20:15;;;;;;;68.38;30.60;;;;;;;0.47;100.00;101917.97;5036098;28;20101;-73
2022/12/02 04:22:41;;;;;;;63.35;26.88;;;;;;;0.45;100.00;101908.41;5050886;28;20045;-75
2022/12/02 04:25:08;;;;;;;70.03;28.38;;;;;;;0.49;100.00;101912.91;5084558;28;20570;-75
2022/12/02 04:27:35;;;;;;;59.72;23.65;;;;;;;0.49;100.00;101921.50;5089998;28;20075;-75
2022/12/02 04:30:01;;;;;;;73.35;27.52;;;;;;;0.53;100.00;101906.22;5071812;28;20055;-74
2022/12/02 04:32:28;;;;;;;66.07;26.20;;;;;;;0.52;100.00;101904.44;5068541;28;20044;-75
2022/12/02 04:34:54;;;;;;;68.45;30.38;;;;;;;0.53;100.00;101906.22;5094141;28;20047;-77
2022/12/02 04:37:21;;;;;;;64.53;27.48;;;;;;;0.52;100.00;101909.59;5089909;27;20176;-74
2022/12/02 04:39:47;;;;;;;69.50;28.17;;;;;;;0.51;100.00;101900.09;5057411;28;20048;-76
2022/12/02 04:42:14;;;;;;;62.88;30.52;;;;;;;0.49;100.00;101906.03;5070829;28;20058;-74
2022/12/02 04:44:40;;;;;;;67.75;29.80;;;;;;;0.49;100.00;101906.03;5073818;28;20109;-75
2022/12/02 04:47:07;;;;;;;75.10;29.83;;;;;;;0.51;100.00;101900.09;5074430;28;20047;-74
2022/12/02 04:49:33;;;;;;;68.25;28.40;;;;;;;0.50;100.00;101904.38;5091291;28;20043;-75
2022/12/02 04:52:00;;;;;;;61.58;26.33;;;;;;;0.49;100.00;101900.88;5053393;28;20135;-77
2022/12/02 04:54:27;;;;;;;73.43;27.88;;;;;;;0.48;100.00;101890.50;5090005;28;20046;-76
2022/12/02 04:56:53;;;;;;;63.08;27.63;;;;;;;0.52;100.00;101892.44;5080112;28;20485;-74
2022/12/02 04:59:20;;;;;;;72.97;30.55;;;;;;;0.54;100.00;101895.13;5092072;28;20055;-74
2022/12/02 05:01:46;;;;;;;73.07;31.02;;;;;;;0.56;100.00;101884.09;5077614;28;20084;-77
2022/12/02 05:04:13;;;;;;;77.72;32.58;;;;;;;0.58;100.00;101895.34;5073507;28;20055;-75
2022/12/02 05:06:39;;;;;;;74.78;28.83;;;;;;;0.56;100.00;101890.91;5072668;28;20122;-76
2022/12/02 05:09:06;;;;;;;68.90;30.63;;;;;;;0.55;100.00;101892.63;5074382;28;20062;-74
2022/12/02 05:11:34;;;;;;;70.93;29.88;;;;;;;0.52;100.00;101889.84;5083306;27;20566;-78
2022/12/02 05:14:01;;;;;;;71.90;27.33;;;;;;;0.52;100.00;101892.44;5073446;28;20105;-78
2022/12/02 05:16:27;;;;;;;62.28;28.48;;;;;;;0.49;100.00;101885.44;5087187;28;20048;-76
2022/12/02 05:18:54;;;;;;;71.10;29.85;;;;;;;0.50;100.00;101888.91;5069592;28;20044;-74
2022/12/02 05:21:20;;;;;;;67.28;29.13;;;;;;;0.52;100.00;101897.59;5068655;28;20852;-76
2022/12/02 05:23:47;;;;;;;62.67;28.20;;;;;;;0.56;100.00;101884.09;5064896;28;20151;-76
2022/12/02 05:26:13;;;;;;;66.20;26.75;;;;;;;0.56;100.00;101889.22;5053671;28;20450;-77
2022/12/02 05:28:40;;;;;;;63.92;27.00;;;;;;;0.60;100.00;101892.84;5055458;28;20133;-78
2022/12/02 05:31:06;;;;;;;65.07;28.33;;;;;;;0.62;100.00;101888.66;5052666;28;20085;-75
2022/12/02 05:33:33;;;;;;;66.47;27.67;;;;;;;0.61;100.00;101886.88;5052689;28;20428;-72
2022/12/02 05:35:59;;;;;;;64.63;27.48;;;;;;;0.63;100.00;101890.44;5054402;28;20153;-75
2022/12/02 05:38:26;;;;;;;72.03;28.40;;;;;;;0.61;100.00;101889.47;5069454;28;20508;-76
2022/12/02 05:40:56;;;;;;;68.40;28.95;;;;;;;0.59;100.00;101880.78;5050563;28;20343;-73
2022/12/02 05:43:25;;;;;;;65.97;28.45;;;;;;;0.60;100.00;101883.44;5065699;28;20060;-75
2022/12/02 05:45:56;;;;;;;57.42;24.63;;;;;;;0.59;100.00;101881.66;5066590;28;20044;-76
2022/12/02 05:48:26;;;;;;;60.05;25.70;;;;;;;0.58;100.00;101889.31;5050679;28;20052;-75
2022/12/02 05:50:54;;;;;;;61.63;27.92;;;;;;;0.59;100.00;101885.94;5051855;28;20497;-74
2022/12/02 05:53:27;;;;;;;73.78;31.42;;;;;;;0.60;100.00;101880.84;5051871;28;20097;-73
2022/12/02 05:55:57;;;;;;;63.05;26.83;;;;;;;0.59;100.00;101888.50;5039001;28;20116;-74
2022/12/02 05:58:23;;;;;;;63.80;26.58;;;;;;;0.58;100.00;101887.59;5069768;28;20055;-74
2022/12/02 06:00:58;;;;;;;66.10;29.42;;;;;;;0.61;100.00;101894.59;5053060;28;20483;-77
2022/12/02 06:03:25;;;;;;;61.90;27.88;;;;;;;0.62;100.00;101894.69;5053289;28;20040;-75
2022/12/02 06:05:53;;;;;;;59.72;25.65;;;;;;;0.62;100.00;101894.69;5052431;28;20395;-74
2022/12/02 06:08:23;;;;;;;65.13;26.45;;;;;;;0.64;100.00;101893.09;5053192;28;20056;-75
2022/12/02 06:11:02;;;;;;;65.70;27.65;;;;;;;0.62;100.00;101886.06;5071819;28;20905;-74
2022/12/02 06:13:42;;;;;;;66.22;27.30;;;;;;;0.60;100.00;101893.75;5042171;28;20047;-73
2022/12/02 06:16:22;;;;;;;67.35;28.17;;;;;;;0.58;100.00;101900.50;5052154;28;21359;-76
2022/12/02 06:19:07;;;;;;;59.88;26.70;;;;;;;0.59;100.00;101901.41;5037386;28;20060;-76
2022/12/02 06:26:24;;;;;;;55.45;25.30;;;;;;;0.60;100.00;101897.97;5030382;28;20162;-74
2022/12/02 06:32:16;;;;;;;50.90;23.60;;;;;;;0.58;100.00;101903.06;5052052;28;20052;-76
2022/12/02 06:34:46;;;;;;;58.33;24.83;;;;;;;0.61;100.00;101897.19;5057221;28;20040;-74
2022/12/02 06:37:26;;;;;;;59.67;25.50;;;;;;;0.62;100.00;101896.38;5073208;28;20070;-73
2022/12/02 06:39:56;;;;;;;62.33;25.63;;;;;;;0.65;100.00;101900.00;5079236;28;20047;-73
2022/12/02 06:42:38;;;;;;;57.60;26.25;;;;;;;0.67;100.00;101900.09;5073176;28;20044;-77
2022/12/02 06:45:14;;;;;;;61.17;26.67;;;;;;;0.68;100.00;101899.28;5045424;28;20084;-76
2022/12/02 06:47:47;;;;;;;52.83;24.75;;;;;;;0.65;100.00;101897.44;5075422;28;20678;-73
2022/12/02 06:50:26;;;;;;;67.85;30.55;;;;;;;0.69;100.00;101895.00;5069911;28;20044;-75
2022/12/02 06:52:59;;;;;;;61.42;26.50;;;;;;;0.68;100.00;101900.97;5054930;28;20044;-73
2022/12/02 06:55:34;;;;;;;58.75;25.95;;;;;;;0.68;100.00;101899.28;5058654;28;20048;-74
2022/12/02 06:58:29;;;;;;;64.57;27.13;;;;;;;0.68;100.00;101898.38;5073492;28;20054;-73
2022/12/02 07:01:13;;;;;;;55.13;24.75;;;;;;;0.69;100.00;101906.19;5056421;28;20051;-74
2022/12/02 07:03:55;;;;;;;59.77;27.37;;;;;;;0.65;100.00;101900.00;5057166;28;20435;-76
2022/12/02 07:06:27;;;;;;;64.20;30.13;;;;;;;0.64;100.00;101908.53;5057141;28;20052;-75
2022/12/02 07:09:20;;;;;;;54.90;26.38;;;;;;;0.64;100.00;101905.09;5054595;28;20044;-75
2022/12/02 07:11:52;;;;;;;50.95;24.88;;;;;;;0.61;100.00;101903.25;5059883;28;20060;-74
2022/12/02 07:14:43;;;;;;;63.17;28.25;;;;;;;0.59;100.00;101906.53;5056427;28;20044;-74
2022/12/02 07:17:36;;;;;;;55.75;25.70;;;;;;;0.58;100.00;101909.94;5062056;28;20059;-74
2022/12/02 07:20:06;;;;;;;66.35;28.67;;;;;;;0.61;100.00;101902.34;5041712;28;20098;-75
2022/12/02 07:22:44;;;;;;;70.35;32.42;;;;;;;0.61;100.00;101905.81;5073361;28;20098;-76
2022/12/02 07:25:17;;;;;;;54.67;27.75;;;;;;;0.61;100.00;101910.06;5073715;28;20056;-75
2022/12/02 07:27:47;;;;;;;60.83;23.60;;;;;;;0.59;100.00;101910.00;5072397;28;20039;-76
2022/12/02 07:30:33;;;;;;;58.03;26.10;;;;;;;0.61;100.00;101907.50;5056910;28;20044;-74
2022/12/02 07:33:01;;;;;;;58.60;27.73;;;;;;;0.62;100.00;101907.56;5054636;28;20118;-73
2022/12/02 07:35:28;;;;;;;57.78;27.13;;;;;;;0.63;100.00;101911.91;5073575;28;20552;-77
2022/12/02 07:37:54;;;;;;;64.32;28.95;;;;;;;0.62;100.00;101905.00;5075271;28;20770;-75
2022/12/02 07:40:21;;;;;;;52.83;25.35;;;;;;;0.65;100.00;101912.00;5059855;28;20044;-75
2022/12/02 07:42:48;;;;;;;61.30;26.15;;;;;;;0.67;100.00;101912.09;5052648;28;20036;-73
2022/12/02 07:45:17;;;;;;;54.67;24.20;;;;;;;0.70;100.00;101917.41;5068282;28;20045;-74
2022/12/02 07:47:45;;;;;;;59.75;27.02;;;;;;;0.70;100.00;101910.53;5043842;28;20474;-73
2022/12/02 07:50:15;;;;;;;55.53;26.67;;;;;;;0.70;100.00;101909.66;5056780;28;20430;-74
2022/12/02 07:52:41;;;;;;;52.70;24.67;;;;;;;0.68;100.00;101906.13;5054798;28;21409;-74
2022/12/02 07:55:09;;;;;;;52.83;24.83;;;;;;;0.68;100.00;101908.69;5057686;28;20051;-77
2022/12/02 07:57:36;;;;;;;55.60;25.67;;;;;;;0.71;100.00;101908.88;5055030;28;20042;-78
2022/12/02 08:00:06;;;;;;;49.55;22.50;;;;;;;0.69;100.00;101913.03;5072156;28;20075;-73
2022/12/02 08:02:33;;;;;;;51.35;23.63;;;;;;;0.72;100.00;101918.34;5049247;28;20044;-74
2022/12/02 08:04:59;;;;;;;50.28;22.45;;;;;;;0.72;100.00;101910.63;5056257;28;20054;-75
2022/12/02 08:07:26;;;;;;;44.90;20.95;;;;;;;0.66;100.00;101916.34;5072874;28;20044;-75
2022/12/02 08:09:52;;;;;;;42.90;21.73;;;;;;;0.69;100.00;101913.03;5055740;28;21828;-77
2022/12/02 08:12:20;;;;;;;73.47;34.28;;;;;;;0.73;100.00;101905.56;5056591;28;20068;-75
2022/12/02 08:14:47;;;;;;;46.60;23.98;;;;;;;0.77;100.00;101911.75;5057426;28;20503;-75
2022/12/02 08:17:13;;;;;;;49.85;23.48;;;;;;;0.79;100.00;101916.16;5057742;28;20743;-77
2022/12/02 08:19:40;;;;;;;50.00;21.17;;;;;;;0.84;100.00;101907.81;5060183;28;20039;-75
2022/12/02 08:22:07;;;;;;;45.80;21.48;;;;;;;0.87;100.00;101903.66;5042252;28;20056;-75
2022/12/02 08:24:34;;;;;;;40.97;19.83;;;;;;;0.89;100.00;101904.66;5047485;28;20044;-73
2022/12/02 08:27:00;;;;;;;42.97;21.63;;;;;;;0.89;100.00;101906.34;5094419;27;20039;-76
2022/12/02 08:29:27;;;;;;;43.88;21.40;;;;;;;0.90;100.00;101906.44;5060080;28;20051;-74
2022/12/02 08:31:54;;;;;;;45.25;21.13;;;;;;;0.90;100.00;101906.44;5071491;27;20806;-75
2022/12/02 08:34:20;;;;;;;48.13;20.90;;;;;;;0.85;100.00;101902.72;5091794;27;20047;-75
2022/12/02 08:36:53;;;;;;;42.72;20.73;;;;;;;0.82;100.00;101911.19;5071339;28;20066;-75
2022/12/02 08:39:32;;;;;;;43.00;21.00;;;;;;;0.81;100.00;101906.84;5073410;28;20054;-75
2022/12/02 08:48:13;;;;;;;49.75;24.45;;;;;;;0.87;100.00;101907.97;5090924;27;20443;-78
2022/12/02 08:50:39;;;;;;;44.63;21.75;;;;;;;0.89;100.00;101908.94;5072146;28;20076;-75
2022/12/02 08:53:06;;;;;;;42.63;21.40;;;;;;;0.91;100.00;101910.78;5070932;28;20035;-73
2022/12/02 08:55:33;;;;;;;41.03;21.10;;;;;;;0.92;100.00;101912.53;5075025;27;20402;-75
2022/12/02 08:58:03;;;;;;;53.10;24.35;;;;;;;0.91;100.00;101918.50;5071845;27;20127;-73
2022/12/02 09:00:55;;;;;;;43.85;21.00;;;;;;;0.89;100.00;101924.41;5071787;28;20602;-76
2022/12/02 09:07:03;;;;;;;41.53;21.20;;;;;;;0.82;100.00;101925.75;5030226;28;20052;-75
2022/12/02 09:13:06;;;;;;;;;;;;;;;0.81;100.00;101922.31;5092284;27;21392;-75
2022/12/02 09:15:32;;;;;;;44.83;23.42;;;;;;;0.82;100.00;101929.22;5074374;27;19919;-73
2022/12/02 09:17:59;;;;;;;47.20;23.63;;;;;;;0.86;100.00;101919.97;5072075;28;20075;-75
2022/12/02 09:20:25;;;;;;;48.65;21.98;;;;;;;0.90;100.00;101927.06;5073573;28;20048;-76
2022/12/02 09:22:52;;;;;;;51.00;23.90;;;;;;;0.91;100.00;101922.78;5090323;27;20039;-75
2022/12/02 09:25:19;;;;;;;47.58;24.13;;;;;;;0.89;100.00;101924.41;5092479;27;20057;-74
2022/12/02 09:27:45;;;;;;;48.03;22.25;;;;;;;0.91;100.00;101925.34;5076878;28;20132;-74
2022/12/02 09:30:13;;;;;;;53.65;24.33;;;;;;;0.92;100.00;101927.13;5057556;28;20132;-76
2022/12/02 09:32:40;;;;;;;50.85;23.27;;;;;;;0.91;100.00;101933.09;5071836;28;20036;-75
2022/12/02 09:35:07;;;;;;;48.20;23.90;;;;;;;0.93;100.00;101926.31;5074504;28;20048;-79
2022/12/02 09:37:34;;;;;;;45.78;22.02;;;;;;;0.94;100.00;101928.06;5094466;28;20357;-74
2022/12/02 09:40:01;;;;;;;45.85;22.70;;;;;;;0.99;100.00;101924.94;5076666;28;20047;-75
2022/12/02 09:42:28;;;;;;;47.85;23.45;;;;;;;1.04;100.00;101921.69;5056546;28;20051;-76
2022/12/02 09:44:55;;;;;;;45.20;23.42;;;;;;;1.07;100.00;101919.25;5093673;28;20028;-75
2022/12/02 09:47:23;;;;;;;48.50;24.50;;;;;;;1.07;100.00;101925.31;5072314;28;20044;-77
2022/12/02 09:49:49;;;;;;;44.60;21.42;;;;;;;1.06;100.00;101920.97;5071702;28;20572;-78
2022/12/02 09:52:20;;;;;;;45.30;22.75;;;;;;;1.09;100.00;101920.25;5066213;28;20078;-76
2022/12/02 09:54:47;;;;;;;46.25;21.55;;;;;;;1.13;100.00;101923.06;5070604;28;20112;-74
2022/12/02 09:57:16;;;;;;;41.92;20.58;;;;;;;1.14;100.00;101923.94;5074137;28;20071;-75
2022/12/02 09:59:44;;;;;;;42.42;20.85;;;;;;;1.17;100.00;101913.75;5077303;27;20059;-74
2022/12/02 10:02:35;;;;;;;44.83;22.83;;;;;;;1.17;100.00;101918.91;5074014;28;20038;-75
2022/12/02 10:05:20;;;;;;;47.88;22.63;;;;;;;1.17;100.00;101912.88;5078288;28;20048;-75
2022/12/02 10:07:48;;;;;;;39.85;19.67;;;;;;;1.21;100.00;101917.38;5067371;28;20077;-74
2022/12/02 10:10:20;;;;;;;44.45;22.42;;;;;;;1.22;100.00;101911.44;5076978;28;20082;-77
2022/12/02 10:12:47;;;;;;;47.60;22.10;;;;;;;1.19;100.00;101919.91;5078828;28;20051;-78
2022/12/02 10:15:23;;;;;;;44.30;21.45;;;;;;;1.15;100.00;101917.97;5074258;27;20045;-77
2022/12/02 10:17:50;;;;;;;44.38;20.50;;;;;;;1.12;100.00;101912.63;5094602;27;20049;-76
2022/12/02 10:20:25;;;;;;;43.00;20.50;;;;;;;1.09;100.00;101910.78;5071756;27;20044;-73
2022/12/02 10:23:16;;;;;;;46.92;21.65;;;;;;;1.08;100.00;101908.16;5072416;28;20044;-72
2022/12/02 10:26:06;;;;;;;42.72;20.92;;;;;;;1.13;100.00;101914.41;5083114;27;20052;-74
2022/12/02 10:28:36;;;;;;;43.80;21.88;;;;;;;1.14;100.00;101905.88;5096267;27;20062;-73
2022/12/02 10:31:17;;;;;;;44.72;21.98;;;;;;;1.14;100.00;101906.75;5061714;28;20044;-73
2022/12/02 10:33:59;;;;;;;40.47;20.65;;;;;;;1.16;100.00;101906.81;5095995;27;20036;-75
2022/12/02 10:36:37;;;;;;;45.13;22.88;;;;;;;1.15;100.00;101910.25;5076065;28;20142;-74
2022/12/02 10:39:29;;;;;;;48.85;21.52;;;;;;;1.11;100.00;101911.78;5078970;28;20062;-74
2022/12/02 10:42:06;;;;;;;41.58;21.33;;;;;;;1.08;100.00;101910.72;5074999;28;20732;-74
2022/12/02 10:44:41;;;;;;;42.55;22.33;;;;;;;1.08;100.00;101903.91;5091639;27;20575;-75
2022/12/02 10:47:24;;;;;;;45.08;23.15;;;;;;;1.11;100.00;101896.28;5091702;28;21217;-74
2022/12/02 10:49:53;;;;;;;54.83;22.67;;;;;;;1.16;100.00;101899.09;5057360;27;20077;-75
2022/12/02 10:52:34;;;;;;;43.30;22.75;;;;;;;1.18;100.00;101894.91;5089091;27;20574;-76
2022/12/02 10:55:02;;;;;;;49.75;24.02;;;;;;;1.18;100.00;101897.47;5054848;28;20036;-75
2022/12/02 10:57:32;;;;;;;43.95;20.88;;;;;;;1.13;100.00;101905.00;5072598;28;20134;-75
2022/12/02 11:00:08;;;;;;;45.05;22.65;;;;;;;1.16;100.00;101896.50;5088304;27;20386;-74
2022/12/02 11:02:42;;;;;;;46.90;22.02;;;;;;;1.19;100.00;101899.25;5053955;27;21470;-75
2022/12/02 11:05:22;;;;;;;44.28;20.88;;;;;;;1.17;100.00;101892.25;5072178;28;20040;-74
2022/12/02 11:07:56;;;;;;;45.00;22.20;;;;;;;1.15;100.00;101892.19;5074637;27;20191;-77
2022/12/02 11:10:29;;;;;;;42.67;22.48;;;;;;;1.13;100.00;101881.78;5075808;28;20043;-73
2022/12/02 11:12:55;;;;;;;45.00;22.83;;;;;;;1.13;100.00;101894.69;5073299;28;20051;-74
2022/12/02 11:15:34;;;;;;;52.67;23.02;;;;;;;1.15;100.00;101892.19;5094236;27;20097;-75
2022/12/02 11:18:01;;;;;;;51.40;24.70;;;;;;;1.15;100.00;101887.03;5095514;27;20047;-76
2022/12/02 11:20:44;;;;;;;41.20;22.88;;;;;;;1.18;100.00;101894.03;5063860;28;20874;-75
2022/12/02 11:23:19;;;;;;;45.40;22.20;;;;;;;1.17;100.00;101897.41;5073347;28;20043;-75
2022/12/02 11:25:46;;;;;;;37.40;19.80;;;;;;;1.19;100.00;101893.19;5083027;27;20701;-76
2022/12/02 11:28:28;;;;;;;41.17;19.95;;;;;;;1.21;100.00;101889.00;5075982;28;20612;-74
2022/12/02 11:31:10;;;;;;;39.17;19.63;;;;;;;1.26;100.00;101885.84;5076658;28;20043;-72
2022/12/02 11:33:48;;;;;;;40.00;20.73;;;;;;;1.30;100.00;101881.72;5065164;28;20055;-76
2022/12/02 11:36:21;;;;;;;39.10;19.65;;;;;;;1.35;99.39;101889.69;5071180;28;20458;-75
2022/12/02 11:38:50;;;;;;;38.35;20.58;;;;;;;1.36;99.11;101887.19;5066590;28;20036;-73
2022/12/02 11:41:25;;;;;;;36.30;19.35;;;;;;;1.35;98.33;101882.81;5082061;28;20051;-75
2022/12/02 11:43:56;;;;;;;40.17;20.95;;;;;;;1.33;97.86;101876.72;5065175;28;20482;-74
2022/12/02 11:46:39;;;;;;;33.00;17.38;;;;;;;1.36;97.87;101873.41;5064775;28;20050;-74
2022/12/02 11:49:23;;;;;;;38.15;19.98;;;;;;;1.39;97.18;101874.41;5079620;28;20099;-74
2022/12/02 11:51:50;;;;;;;;;;;;;;;1.37;96.74;101870.91;5064379;28;20056;-75
2022/12/02 11:54:18;;;;;;;40.95;19.38;;;;;;;1.35;96.69;101874.22;5076366;28;19924;-76
2022/12/02 11:56:46;;;;;;;35.20;17.40;;;;;;;1.36;96.82;101866.53;5070630;28;20483;-73
2022/12/02 11:59:28;;;;;;;35.72;18.52;;;;;;;1.35;96.41;101867.34;5080661;28;20662;-75